Time;durP1;ratioP1;P1;durP2;ratioP2;P2;SDS_P1;SDS_P2;PMS_P1;PMS_P2;Temp;Humidity;BMP_temperature;BMP_pressure;BME280_temperature;BME280_humidity;BME280_pressure;Samples;Min_cycle;Max_cycle;Signal;HPM_P1;HPM_P2
2024/03/22 00:00:34;;;;;;;51.03;22.67;;;8.00;1.00;;;;;;4480166;27;655959;-68
2024/03/22 00:03:20;;;;;;;45.90;21.20;;;8.00;99.90;;;;;;4478293;27;656469;-69
2024/03/22 00:06:07;;;;;;;54.07;24.00;;;8.10;1.00;;;;;;4432319;27;657891;-69
2024/03/22 00:08:55;;;;;;;59.30;25.00;;;8.40;99.90;;;;;;4391984;27;656539;-69
2024/03/22 00:11:43;;;;;;;59.77;25.17;;;8.50;99.90;;;;;;4383616;27;658291;-69
2024/03/22 00:14:29;;;;;;;55.87;24.77;;;8.60;1.00;;;;;;4401388;27;657005;-69
2024/03/22 00:17:16;;;;;;;51.93;25.93;;;8.70;1.00;;;;;;4455398;27;656631;-68
2024/03/22 00:20:03;;;;;;;55.13;24.67;;;8.90;99.90;;;;;;4462147;27;657188;-68
2024/03/22 00:22:50;;;;;;;56.20;25.53;;;9.00;99.90;;;;;;4470053;27;658303;-68
2024/03/22 00:25:38;;;;;;;59.00;27.67;;;9.20;99.90;;;;;;4455102;27;657278;-68
2024/03/22 00:28:25;;;;;;;58.17;25.10;;;9.30;99.90;;;;;;4467160;27;659028;-68
2024/03/22 00:31:12;;;;;;;54.20;24.60;;;9.20;99.90;;;;;;4454708;27;657999;-69
2024/03/22 00:33:59;;;;;;;53.13;24.47;;;9.20;1.00;;;;;;4470533;27;658455;-68
2024/03/22 00:36:46;;;;;;;50.17;23.90;;;9.40;1.00;;;;;;4478945;27;656391;-69
2024/03/22 00:39:32;;;;;;;55.33;24.73;;;9.40;1.00;;;;;;4449746;27;656933;-68
2024/03/22 00:42:21;;;;;;;54.47;24.63;;;9.40;1.00;;;;;;4478837;27;656715;-69
2024/03/22 00:45:07;;;;;;;43.70;22.27;;;9.40;1.00;;;;;;4445822;27;657249;-69
2024/03/22 00:47:54;;;;;;;50.80;23.50;;;9.40;1.00;;;;;;4469034;27;657058;-69
2024/03/22 00:50:41;;;;;;;51.73;23.07;;;9.40;1.00;;;;;;4469898;27;656291;-69
2024/03/22 00:53:28;;;;;;;53.03;22.90;;;9.40;1.00;;;;;;4453288;27;656437;-68
2024/03/22 00:56:14;;;;;;;49.57;23.17;;;9.40;99.90;;;;;;4472118;27;656836;-69
2024/03/22 00:59:03;;;;;;;42.33;20.27;;;9.50;1.00;;;;;;4472280;27;657357;-68
2024/03/22 01:01:49;;;;;;;46.57;21.77;;;9.60;31.60;;;;;;4452358;27;657442;-69
2024/03/22 01:04:36;;;;;;;45.63;21.20;;;9.40;99.90;;;;;;4471867;27;657708;-69
2024/03/22 01:07:22;;;;;;;46.43;21.50;;;9.40;99.90;;;;;;4449827;27;657957;-68
2024/03/22 01:10:10;;;;;;;43.93;20.23;;;9.50;99.90;;;;;;4475237;27;658288;-68
2024/03/22 01:12:56;;;;;;;32.47;14.47;;;9.50;99.90;;;;;;4474056;27;657401;-69
2024/03/22 01:15:45;;;;;;;42.63;20.70;;;9.50;99.90;;;;;;4447337;27;658111;-69
2024/03/22 01:18:32;;;;;;;46.03;20.50;;;9.50;99.90;;;;;;4453286;27;657603;-69
2024/03/22 01:21:19;;;;;;;41.87;19.60;;;9.40;99.90;;;;;;4477524;27;658181;-68
2024/03/22 01:24:05;;;;;;;41.37;19.90;;;9.40;99.90;;;;;;4468799;27;657935;-69
2024/03/22 01:26:53;;;;;;;40.90;18.77;;;9.40;99.90;;;;;;4444860;27;657734;-69
2024/03/22 01:29:39;;;;;;;43.53;19.10;;;9.30;1.00;;;;;;4475066;27;658535;-68
2024/03/22 01:32:27;;;;;;;39.37;19.17;;;9.30;1.00;;;;;;4474153;27;656682;-69
2024/03/22 01:35:14;;;;;;;37.87;18.43;;;9.40;1.00;;;;;;4456169;27;658082;-69
2024/03/22 01:38:01;;;;;;;35.17;17.83;;;9.30;1.00;;;;;;4468373;27;656809;-68
2024/03/22 01:40:47;;;;;;;36.50;17.03;;;9.40;1.00;;;;;;4453847;27;656640;-68
2024/03/22 01:43:34;;;;;;;34.50;17.30;;;9.30;1.00;;;;;;4470088;27;656483;-69
2024/03/22 01:46:20;;;;;;;39.77;17.37;;;9.30;99.90;;;;;;4473413;27;657021;-69
2024/03/22 01:49:09;;;;;;;35.03;16.67;;;9.30;1.00;;;;;;4447434;27;657862;-69
2024/03/22 01:51:55;;;;;;;33.27;16.37;;;9.30;1.00;;;;;;4469503;27;656425;-68
2024/03/22 01:54:43;;;;;;;39.73;17.43;;;9.20;1.00;;;;;;4447963;27;656938;-69
2024/03/22 01:57:29;;;;;;;39.03;18.03;;;9.30;31.00;;;;;;4468463;28;657151;-69
2024/03/22 02:00:17;;;;;;;39.40;17.70;;;9.30;65.90;;;;;;4468803;27;657749;-68
2024/03/22 02:03:03;;;;;;;37.43;18.50;;;9.30;99.90;;;;;;4450525;28;657989;-68
2024/03/22 02:05:53;;;;;;;35.30;18.07;;;9.40;1.00;;;;;;4475163;28;658514;-69
2024/03/22 02:08:41;;;;;;;41.77;21.20;;;9.30;99.90;;;;;;4446573;28;656862;-69
2024/03/22 02:11:29;;;;;;;44.30;22.02;;;9.30;99.90;;;;;;4447035;28;657361;-69
2024/03/22 02:14:15;;;;;;;41.20;18.43;;;9.30;99.90;;;;;;4471605;28;657862;-68
2024/03/22 02:17:02;;;;;;;47.50;23.73;;;9.40;99.90;;;;;;4468568;28;657708;-69
2024/03/22 02:19:49;;;;;;;56.00;25.67;;;9.30;99.90;;;;;;4473803;28;659042;-69
2024/03/22 02:22:37;;;;;;;56.43;28.07;;;9.30;99.90;;;;;;4466836;28;657391;-68
2024/03/22 02:25:26;;;;;;;49.53;24.13;;;9.30;1.00;;;;;;4451369;28;657955;-68
2024/03/22 02:28:12;;;;;;;50.77;26.03;;;9.30;99.90;;;;;;4454416;27;657586;-68
2024/03/22 02:30:59;;;;;;;48.67;23.77;;;9.40;99.90;;;;;;4471108;28;658082;-69
2024/03/22 02:33:45;;;;;;;45.70;23.73;;;9.30;1.00;;;;;;4469470;28;657989;-69
2024/03/22 02:36:33;;;;;;;48.20;23.70;;;9.40;1.00;;;;;;4456360;28;656937;-69
2024/03/22 02:39:19;;;;;;;47.90;23.50;;;9.40;1.00;;;;;;4471144;28;658762;-68
2024/03/22 02:42:08;;;;;;;55.60;28.73;;;9.40;1.00;;;;;;4469979;28;657542;-68
2024/03/22 02:44:54;;;;;;;54.87;27.57;;;9.40;38.70;;;;;;4449234;28;657020;-68
2024/03/22 02:47:41;;;;;;;60.60;28.00;;;9.40;1.00;;;;;;4476399;28;657315;-68
2024/03/22 02:50:27;;;;;;;63.00;29.10;;;9.40;66.70;;;;;;4452809;28;657579;-68
2024/03/22 02:53:14;;;;;;;60.80;29.73;;;9.30;54.90;;;;;;4478559;27;657625;-69
2024/03/22 02:56:01;;;;;;;58.03;30.13;;;9.30;29.00;;;;;;4474634;27;657274;-68
2024/03/22 02:58:50;;;;;;;60.00;28.13;;;9.30;89.60;;;;;;4455516;27;658173;-69
2024/03/22 03:01:36;;;;;;;59.43;28.13;;;9.30;99.90;;;;;;4469433;27;658000;-69
2024/03/22 03:04:24;;;;;;;62.10;34.00;;;9.30;99.90;;;;;;4477128;27;657567;-68
2024/03/22 03:07:11;;;;;;;60.10;31.97;;;9.20;99.90;;;;;;4467354;27;657994;-69
2024/03/22 03:09:58;;;;;;;60.87;30.50;;;9.10;99.90;;;;;;4454286;27;657951;-68
2024/03/22 03:12:44;;;;;;;56.60;29.53;;;9.10;99.90;;;;;;4475032;27;658216;-69
2024/03/22 03:15:32;;;;;;;56.57;29.10;;;9.10;1.00;;;;;;4470097;27;657598;-68
2024/03/22 03:18:19;;;;;;;56.53;27.73;;;9.10;1.00;;;;;;4453225;27;657042;-69
2024/03/22 03:21:06;;;;;;;56.93;28.03;;;9.10;1.00;;;;;;4476920;27;656483;-69
2024/03/22 03:23:52;;;;;;;56.07;27.93;;;9.00;1.00;;;;;;4449372;27;656583;-69
2024/03/22 03:26:39;;;;;;;54.77;27.73;;;9.10;1.00;;;;;;4470654;27;656697;-69
2024/03/22 03:29:25;;;;;;;58.57;28.60;;;9.00;1.00;;;;;;4470605;27;656534;-69
2024/03/22 03:32:14;;;;;;;53.63;26.33;;;9.00;1.00;;;;;;4452988;27;656816;-69
2024/03/22 03:35:01;;;;;;;53.35;27.52;;;8.90;83.70;;;;;;4475728;27;656068;-69
2024/03/22 03:37:47;;;;;;;51.30;26.07;;;9.00;12.30;;;;;;4449098;27;657525;-69
2024/03/22 03:40:35;;;;;;;51.20;25.90;;;8.80;99.90;;;;;;4475969;27;658687;-69
2024/03/22 03:43:22;;;;;;;53.40;26.77;;;8.80;99.90;;;;;;4465454;27;657797;-69
2024/03/22 03:46:09;;;;;;;53.43;26.33;;;8.70;1.00;;;;;;4480884;27;658412;-69
2024/03/22 03:48:56;;;;;;;51.90;25.60;;;8.70;1.00;;;;;;4470871;27;656712;-69
2024/03/22 03:51:44;;;;;;;53.87;26.83;;;8.80;1.00;;;;;;4454268;27;656443;-69
2024/03/22 03:54:31;;;;;;;54.27;26.83;;;8.70;1.00;;;;;;4473416;27;656755;-69
2024/03/22 03:57:17;;;;;;;50.60;26.03;;;8.70;1.00;;;;;;4456055;27;657079;-69
2024/03/22 04:00:05;;;;;;;53.00;25.50;;;8.70;1.00;;;;;;4480039;27;656278;-69
2024/03/22 04:02:51;;;;;;;49.97;26.37;;;8.70;1.00;;;;;;4450605;27;656309;-69
2024/03/22 04:05:40;;;;;;;46.30;23.40;;;8.60;1.00;;;;;;4469984;27;657153;-69
2024/03/22 04:08:27;;;;;;;48.37;26.20;;;8.80;1.00;;;;;;4430061;27;656394;-70
2024/03/22 04:11:14;;;;;;;52.93;25.67;;;8.70;5.80;;;;;;4392367;27;656486;-70
2024/03/22 04:14:01;;;;;;;50.37;26.63;;;8.70;1.00;;;;;;4397410;27;656830;-69
2024/03/22 04:16:47;;;;;;;46.57;23.87;;;8.70;1.00;;;;;;4374476;27;656538;-69
2024/03/22 04:19:34;;;;;;;50.10;25.10;;;8.70;1.00;;;;;;4462562;27;656596;-69
2024/03/22 04:22:23;;;;;;;52.23;28.17;;;8.60;99.90;;;;;;4469730;27;657051;-69
2024/03/22 04:25:09;;;;;;;54.37;28.20;;;8.60;99.90;;;;;;4446122;27;658113;-68
2024/03/22 04:27:56;;;;;;;53.57;28.10;;;8.60;99.90;;;;;;4481320;27;658636;-69
2024/03/22 04:30:43;;;;;;;51.73;25.77;;;8.50;99.90;;;;;;4454328;27;657936;-69
2024/03/22 04:33:30;;;;;;;55.33;23.83;;;8.50;99.90;;;;;;4478830;27;658122;-69
2024/03/22 04:36:17;;;;;;;51.27;23.07;;;8.40;1.00;;;;;;4441735;27;657396;-69
2024/03/22 04:39:05;;;;;;;52.90;27.63;;;8.50;1.00;;;;;;4476730;27;656350;-69
2024/03/22 04:41:52;;;;;;;51.87;28.03;;;8.40;1.00;;;;;;4454823;27;656536;-69
2024/03/22 04:44:40;;;;;;;57.17;29.23;;;8.40;27.60;;;;;;4466945;27;657640;-68
2024/03/22 04:47:27;;;;;;;50.20;22.13;;;8.40;57.60;;;;;;4462811;27;657455;-69
2024/03/22 04:50:14;;;;;;;56.07;28.10;;;8.50;1.00;;;;;;4477258;27;658281;-69
2024/03/22 04:53:01;;;;;;;52.23;27.60;;;8.40;6.70;;;;;;4476328;27;657653;-69
2024/03/22 04:55:49;;;;;;;49.93;27.13;;;8.40;99.90;;;;;;4447441;27;656475;-69
2024/03/22 04:58:36;;;;;;;58.40;29.33;;;8.50;99.90;;;;;;4477636;27;657399;-69
2024/03/22 05:01:23;;;;;;;55.90;27.50;;;8.30;99.90;;;;;;4452923;27;658527;-69
2024/03/22 05:04:10;;;;;;;57.77;29.07;;;8.30;1.00;;;;;;4475913;27;658457;-69
2024/03/22 05:06:56;;;;;;;56.00;28.83;;;8.30;1.00;;;;;;4454128;27;656516;-69
2024/03/22 05:09:44;;;;;;;52.93;25.10;;;8.40;1.00;;;;;;4478206;27;656951;-69
2024/03/22 05:12:31;;;;;;;54.73;28.23;;;8.50;99.90;;;;;;4479021;27;657173;-69
2024/03/22 05:15:19;;;;;;;49.67;27.53;;;8.60;99.90;;;;;;4456379;27;657340;-69
2024/03/22 05:18:05;;;;;;;55.43;29.90;;;8.50;99.90;;;;;;4465706;27;657436;-69
2024/03/22 05:20:52;;;;;;;55.40;29.00;;;8.50;99.90;;;;;;4449765;27;658132;-69
2024/03/22 05:23:39;;;;;;;52.97;28.70;;;8.50;1.00;;;;;;4467310;27;658231;-69
2024/03/22 05:26:26;;;;;;;56.67;29.63;;;8.60;99.90;;;;;;4470747;27;656449;-69
2024/03/22 05:29:14;;;;;;;55.80;28.03;;;8.60;99.90;;;;;;4451562;27;658090;-69
2024/03/22 05:32:03;;;;;;;53.37;28.40;;;8.60;99.90;;;;;;4467458;27;658046;-69
2024/03/22 05:34:49;;;;;;;62.37;31.03;;;8.70;99.90;;;;;;4449511;27;658365;-69
2024/03/22 05:37:36;;;;;;;54.85;25.45;;;8.60;99.90;;;;;;4462530;27;657409;-68
2024/03/22 05:40:23;;;;;;;61.90;30.53;;;8.70;99.90;;;;;;4451939;27;657766;-68
2024/03/22 05:43:10;;;;;;;59.93;32.33;;;8.70;99.90;;;;;;4466858;27;658968;-69
2024/03/22 05:45:58;;;;;;;61.80;33.47;;;8.60;99.90;;;;;;4461064;27;658135;-69
2024/03/22 05:48:45;;;;;;;60.13;31.87;;;8.70;99.90;;;;;;4472001;27;658857;-69
2024/03/22 05:51:31;;;;;;;60.00;30.17;;;8.70;1.00;;;;;;4451285;27;658227;-69
2024/03/22 05:54:20;;;;;;;53.00;28.17;;;8.70;10.80;;;;;;4473900;27;656893;-68
2024/03/22 05:57:07;;;;;;;56.73;30.20;;;8.80;1.00;;;;;;4461796;28;658038;-69
2024/03/22 05:59:54;;;;;;;56.87;29.93;;;8.80;1.00;;;;;;4478402;27;657002;-69
2024/03/22 06:02:42;;;;;;;53.57;26.73;;;8.70;1.00;;;;;;4469234;27;656752;-69
2024/03/22 06:05:29;;;;;;;54.37;29.10;;;8.80;1.00;;;;;;4453328;28;656687;-69
2024/03/22 06:08:18;;;;;;;57.17;29.20;;;8.80;1.00;;;;;;4473364;28;656440;-68
2024/03/22 06:11:06;;;;;;;50.10;28.07;;;8.90;1.00;;;;;;4450423;28;656847;-69
2024/03/22 06:13:53;;;;;;;57.97;29.63;;;8.90;1.00;;;;;;4454294;28;657035;-69
2024/03/22 06:16:40;;;;;;;56.13;30.20;;;8.80;99.90;;;;;;4470858;28;657845;-69
2024/03/22 06:19:28;;;;;;;63.27;30.00;;;8.80;1.00;;;;;;4463656;28;657263;-69
2024/03/22 06:22:15;;;;;;;78.77;38.73;;;8.80;1.00;;;;;;4472625;28;656658;-69
2024/03/22 06:25:02;;;;;;;71.40;32.15;;;8.90;99.90;;;;;;4457884;28;656547;-69
2024/03/22 06:27:49;;;;;;;90.27;41.63;;;8.90;99.90;;;;;;4477388;27;657851;-69
2024/03/22 06:30:36;;;;;;;98.20;44.43;;;8.90;1.00;;;;;;4473936;27;657676;-69
2024/03/22 06:33:22;;;;;;;95.33;43.37;;;8.80;1.00;;;;;;4456666;27;656415;-69
2024/03/22 06:36:11;;;;;;;90.37;43.50;;;8.80;1.00;;;;;;4470409;27;658081;-69
2024/03/22 06:38:57;;;;;;;87.43;42.43;;;8.90;1.00;;;;;;4459772;27;657668;-69
2024/03/22 06:41:46;;;;;;;95.33;45.73;;;8.90;1.00;;;;;;4481482;27;657385;-69
2024/03/22 06:44:32;;;;;;;92.17;41.43;;;8.90;99.90;;;;;;4452916;27;656464;-69
2024/03/22 06:47:20;;;;;;;79.63;39.43;;;8.90;1.00;;;;;;4472146;27;658460;-69
2024/03/22 06:50:07;;;;;;;85.22;42.67;;;8.90;1.00;;;;;;4455451;27;656067;-69
2024/03/22 06:52:56;;;;;;;82.70;40.53;;;8.90;1.00;;;;;;4471465;27;656479;-69
2024/03/22 06:55:42;;;;;;;91.13;41.93;;;8.80;93.90;;;;;;4450502;27;656879;-69
2024/03/22 06:58:29;;;;;;;86.83;41.27;;;8.80;99.90;;;;;;4470009;27;657638;-69
2024/03/22 07:01:15;;;;;;;87.77;39.37;;;8.90;1.00;;;;;;4468617;27;657695;-69
2024/03/22 07:04:03;;;;;;;85.90;39.83;;;9.00;1.00;;;;;;4450441;27;657005;-69
2024/03/22 07:06:49;;;;;;;86.60;40.63;;;9.00;44.80;;;;;;4468331;27;658079;-69
2024/03/22 07:09:37;;;;;;;82.60;37.40;;;9.00;1.00;;;;;;4479185;27;657678;-69
2024/03/22 07:12:24;;;;;;;44.03;17.17;;;9.00;1.00;;;;;;4449450;27;657757;-69
2024/03/22 07:15:11;;;;;;;66.07;29.27;;;8.90;1.00;;;;;;4475875;27;656482;-70
2024/03/22 07:17:58;;;;;;;71.10;34.27;;;8.90;1.00;;;;;;4449069;27;657068;-69
2024/03/22 07:20:47;;;;;;;54.17;23.23;;;8.90;1.00;;;;;;4474522;27;657753;-69
2024/03/22 07:23:33;;;;;;;61.87;28.97;;;8.80;1.00;;;;;;4443309;27;658393;-69
2024/03/22 07:26:22;;;;;;;64.13;27.53;;;8.80;99.90;;;;;;4470109;27;656873;-69
2024/03/22 07:29:09;;;;;;;44.40;19.10;;;8.80;99.90;;;;;;4450822;27;657976;-69
2024/03/22 07:31:55;;;;;;;54.90;25.23;;;8.70;96.00;;;;;;4463575;27;657659;-69
2024/03/22 07:34:42;;;;;;;49.43;26.03;;;8.70;99.90;;;;;;4446101;27;657988;-69
2024/03/22 07:37:29;;;;;;;43.80;18.10;;;8.60;1.00;;;;;;4468518;27;659376;-69
2024/03/22 07:40:16;;;;;;;18.70;7.60;;;8.60;1.00;;;;;;4472128;27;656307;-69
2024/03/22 07:43:06;;;;;;;41.10;20.13;;;8.70;1.00;;;;;;4449273;27;655492;-69
2024/03/22 07:45:53;;;;;;;42.43;22.03;;;8.80;1.00;;;;;;4447672;27;657183;-69
2024/03/22 07:48:39;;;;;;;43.05;19.30;;;8.70;1.00;;;;;;4468714;27;657341;-69
2024/03/22 07:51:26;;;;;;;34.70;15.17;;;8.80;1.00;;;;;;4473844;27;656804;-68
2024/03/22 07:54:13;;;;;;;38.73;19.77;;;9.00;99.90;;;;;;4447571;27;656889;-69
2024/03/22 07:57:00;;;;;;;40.97;18.90;;;8.90;1.00;;;;;;4468008;27;659443;-69
2024/03/22 07:59:48;;;;;;;43.57;20.40;;;9.00;1.00;;;;;;4467154;27;656616;-69
2024/03/22 08:02:35;;;;;;;37.50;18.63;;;9.00;99.90;;;;;;4477416;27;656478;-69
2024/03/22 08:05:23;;;;;;;44.07;19.53;;;9.10;67.30;;;;;;4434696;28;658014;-69
2024/03/22 08:08:09;;;;;;;36.60;18.37;;;9.10;99.90;;;;;;4456644;28;658401;-69
2024/03/22 08:10:56;;;;;;;36.97;18.13;;;9.10;1.00;;;;;;4450883;28;658134;-68
2024/03/22 08:13:43;;;;;;;35.80;18.37;;;9.10;41.60;;;;;;4429587;28;656481;-69
2024/03/22 08:16:31;;;;;;;22.80;7.00;;;9.20;1.00;;;;;;4450276;28;658631;-68
2024/03/22 08:19:18;;;;;;;34.23;15.40;;;9.10;1.00;;;;;;4433773;28;655498;-68
2024/03/22 08:22:05;;;;;;;19.37;6.77;;;8.90;1.00;;;;;;4454602;28;656558;-68
2024/03/22 08:24:52;;;;;;;24.63;8.97;;;8.80;1.00;;;;;;4431823;28;655594;-68
2024/03/22 08:27:39;;;;;;;31.03;12.67;;;8.80;1.00;;;;;;4455148;28;655419;-68
2024/03/22 08:30:25;;;;;;;33.27;14.27;;;8.80;1.00;;;;;;4450763;28;656902;-68
2024/03/22 08:33:14;;;;;;;33.27;14.63;;;8.90;99.90;;;;;;4444865;28;657122;-69
2024/03/22 08:36:01;;;;;;;36.30;14.73;;;8.90;1.00;;;;;;4461176;28;657423;-69
2024/03/22 08:38:48;;;;;;;30.90;14.43;;;9.10;99.90;;;;;;4438422;28;656416;-70
2024/03/22 08:41:34;;;;;;;33.43;13.57;;;9.20;1.00;;;;;;4462049;28;657613;-69
2024/03/22 08:44:21;;;;;;;32.50;14.60;;;9.40;1.00;;;;;;4454156;28;657503;-68
2024/03/22 08:47:07;;;;;;;30.17;14.30;;;9.60;92.00;;;;;;4438160;28;656425;-69
2024/03/22 08:49:57;;;;;;;31.27;13.17;;;9.60;92.00;;;;;;4455894;28;658708;-69
2024/03/22 08:52:43;;;;;;;25.00;11.17;;;9.50;99.90;;;;;;4427878;28;658388;-68
2024/03/22 08:55:31;;;;;;;31.52;13.80;;;9.30;16.30;;;;;;4450886;28;659090;-69
2024/03/22 08:58:17;;;;;;;28.77;13.17;;;9.40;99.90;;;;;;4437339;28;657937;-69
2024/03/22 09:01:05;;;;;;;31.90;13.67;;;9.50;99.90;;;;;;4462035;28;657928;-69
2024/03/22 09:03:51;;;;;;;34.43;13.93;;;9.50;99.90;;;;;;4451655;28;657796;-68
2024/03/22 09:06:40;;;;;;;33.60;15.83;;;9.60;1.00;;;;;;4435264;28;657938;-68
2024/03/22 09:09:26;;;;;;;33.40;15.03;;;9.40;44.90;;;;;;4445367;28;656346;-69
2024/03/22 09:12:14;;;;;;;29.37;14.90;;;9.40;99.90;;;;;;4457721;28;657912;-68
2024/03/22 09:15:00;;;;;;;33.47;15.50;;;9.40;99.90;;;;;;4451431;28;657265;-69
2024/03/22 09:17:47;;;;;;;41.33;20.27;;;9.20;1.00;;;;;;4436494;28;657411;-68
2024/03/22 09:20:34;;;;;;;51.53;27.17;;;9.10;99.90;;;;;;4454092;28;657480;-68
2024/03/22 09:23:22;;;;;;;58.37;26.77;;;8.90;1.00;;;;;;4459237;28;658541;-68
2024/03/22 09:26:09;;;;;;;50.67;22.33;;;8.90;1.00;;;;;;4430783;28;656704;-69
2024/03/22 09:28:56;;;;;;;63.87;28.57;;;8.90;1.00;;;;;;4460944;28;656883;-68
2024/03/22 09:31:43;;;;;;;58.87;28.03;;;8.80;68.40;;;;;;4432402;28;657224;-69
2024/03/22 09:34:29;;;;;;;66.20;29.20;;;8.90;99.90;;;;;;4457288;28;658141;-68
2024/03/22 09:37:17;;;;;;;65.40;29.80;;;9.00;28.00;;;;;;4438553;28;656983;-68
2024/03/22 09:40:07;;;;;;;64.07;29.43;;;9.10;1.00;;;;;;4427207;28;658767;-68
2024/03/22 09:42:54;;;;;;;66.03;28.10;;;8.90;99.90;;;;;;4425381;28;657876;-69
2024/03/22 09:45:41;;;;;;;60.70;29.63;;;9.10;6.70;;;;;;4452144;28;657916;-68
2024/03/22 09:48:28;;;;;;;49.83;21.40;;;9.10;1.00;;;;;;4425942;28;656815;-68
2024/03/22 09:51:16;;;;;;;56.27;27.20;;;9.00;1.00;;;;;;4453405;28;658708;-68
2024/03/22 09:54:03;;;;;;;65.73;28.07;;;9.00;1.00;;;;;;4433846;28;658058;-68
2024/03/22 09:56:51;;;;;;;54.97;26.70;;;9.00;1.00;;;;;;4462157;27;657734;-68
2024/03/22 09:59:38;;;;;;;56.97;27.67;;;9.10;1.00;;;;;;4432726;28;658042;-69
2024/03/22 10:02:26;;;;;;;53.47;27.80;;;9.10;5.50;;;;;;4448564;28;657657;-69
2024/03/22 10:05:13;;;;;;;60.60;30.90;;;9.00;1.00;;;;;;4434543;28;657462;-69
2024/03/22 10:08:00;;;;;;;65.07;30.00;;;9.20;1.00;;;;;;4455258;28;658150;-69
2024/03/22 10:10:47;;;;;;;54.17;25.30;;;9.30;1.00;;;;;;4447311;28;657526;-68
2024/03/22 10:13:34;;;;;;;55.47;25.90;;;9.50;99.90;;;;;;4424425;28;658647;-69
2024/03/22 10:16:22;;;;;;;25.10;9.47;;;9.60;99.90;;;;;;4371538;28;659159;-69
2024/03/22 10:19:08;;;;;;;53.07;23.10;;;9.60;99.90;;;;;;4353068;28;657551;-69
2024/03/22 10:22:01;;;;;;;54.83;26.87;;;9.60;99.90;;;;;;4374651;28;658700;-69
2024/03/22 10:24:47;;;;;;;46.70;24.17;;;9.60;99.90;;;;;;4398617;28;658558;-69
2024/03/22 10:27:35;;;;;;;52.57;25.60;;;9.50;99.90;;;;;;4460317;28;659271;-69
2024/03/22 10:30:22;;;;;;;61.50;28.63;;;9.60;99.90;;;;;;4453251;28;658193;-69
2024/03/22 10:33:10;;;;;;;58.67;28.77;;;9.50;99.90;;;;;;4427552;28;659927;-69
2024/03/22 10:35:56;;;;;;;59.87;26.90;;;9.20;99.90;;;;;;4452428;28;659132;-69
2024/03/22 10:38:44;;;;;;;64.23;28.63;;;9.40;99.90;;;;;;4459950;28;659291;-69
2024/03/22 10:41:30;;;;;;;42.23;18.47;;;9.50;1.00;;;;;;4456891;28;659035;-69
2024/03/22 10:44:17;;;;;;;57.43;27.53;;;9.30;99.90;;;;;;4448178;28;657857;-69
2024/03/22 10:47:05;;;;;;;63.10;28.73;;;9.30;99.90;;;;;;4451365;28;658698;-69
2024/03/22 10:49:53;;;;;;;28.97;13.53;;;9.30;99.90;;;;;;4430776;28;658983;-69
2024/03/22 10:52:40;;;;;;;58.33;26.97;;;9.40;99.90;;;;;;4453594;28;660105;-69
2024/03/22 10:55:30;;;;;;;57.63;28.07;;;9.30;99.90;;;;;;4434364;28;658429;-69
2024/03/22 10:58:18;;;;;;;50.37;25.70;;;9.30;1.00;;;;;;4437289;28;658424;-69
2024/03/22 11:01:05;;;;;;;49.83;26.67;;;9.50;99.90;;;;;;4455513;28;659121;-69
2024/03/22 11:04:03;;;;;;;48.03;23.93;;;9.70;99.90;;;;;;4459077;28;658767;-69
2024/03/22 11:06:50;;;;;;;40.80;18.30;;;9.80;99.90;;;;;;4441191;28;659660;-69
2024/03/22 11:09:37;;;;;;;42.13;21.63;;;10.10;1.00;;;;;;4470685;28;659240;-69
2024/03/22 11:12:25;;;;;;;33.10;16.40;;;10.00;99.90;;;;;;4475941;27;659775;-69
2024/03/22 11:15:13;;;;;;;34.57;17.57;;;10.00;1.00;;;;;;4456100;27;659943;-69
2024/03/22 11:17:59;;;;;;;31.70;17.40;;;10.20;1.00;;;;;;4463203;27;659781;-69
2024/03/22 11:20:48;;;;;;;31.83;15.93;;;10.30;99.90;;;;;;4463767;27;658489;-69
2024/03/22 11:23:34;;;;;;;30.77;15.97;;;10.50;1.00;;;;;;4450967;27;660510;-68
2024/03/22 11:26:21;;;;;;;27.70;13.97;;;10.70;1.00;;;;;;4465445;27;659033;-69
2024/03/22 11:29:08;;;;;;;12.73;6.30;;;10.80;99.90;;;;;;4455182;27;659591;-69
2024/03/22 11:31:55;;;;;;;29.27;17.00;;;10.40;99.90;;;;;;4466839;27;658912;-69
2024/03/22 11:34:41;;;;;;;28.80;14.00;;;10.20;1.00;;;;;;4453160;27;659969;-69
2024/03/22 11:37:30;;;;;;;27.37;10.97;;;10.50;1.00;;;;;;4458475;27;658533;-68
2024/03/22 11:40:17;;;;;;;31.43;17.17;;;10.40;1.00;;;;;;4453753;27;659151;-68
2024/03/22 11:43:05;;;;;;;16.03;6.37;;;10.50;1.00;;;;;;4472084;27;659010;-69
2024/03/22 11:45:51;;;;;;;33.83;18.63;;;10.30;1.00;;;;;;4466255;27;657530;-69
2024/03/22 11:48:40;;;;;;;33.07;17.70;;;9.90;1.00;;;;;;4479312;27;660219;-70
2024/03/22 11:51:27;;;;;;;32.60;18.80;;;10.10;1.00;;;;;;4448695;27;657422;-69
2024/03/22 11:54:15;;;;;;;29.30;14.77;;;10.10;1.00;;;;;;4471646;27;658787;-69
2024/03/22 11:57:02;;;;;;;29.87;17.43;;;10.30;1.00;;;;;;4452575;27;658710;-69
2024/03/22 11:59:50;;;;;;;33.57;17.40;;;10.50;99.90;;;;;;4480925;27;659225;-69
2024/03/22 12:02:36;;;;;;;27.73;15.57;;;10.70;99.90;;;;;;4470061;27;659393;-69
2024/03/22 12:05:24;;;;;;;27.33;16.00;;;11.00;99.90;;;;;;4444372;27;661151;-70
2024/03/22 12:08:11;;;;;;;28.43;15.77;;;10.90;99.90;;;;;;4471361;27;660159;-69
2024/03/22 12:11:00;;;;;;;14.93;7.07;;;11.00;99.90;;;;;;4445234;27;659601;-69
2024/03/22 12:13:46;;;;;;;15.23;7.73;;;11.60;99.90;;;;;;4474833;27;658152;-70
2024/03/22 12:16:34;;;;;;;28.20;13.43;;;11.40;1.00;;;;;;4476081;27;659812;-70
2024/03/22 12:19:20;;;;;;;25.93;13.93;;;11.10;80.10;;;;;;4468578;27;658893;-69
2024/03/22 12:22:08;;;;;;;27.33;16.17;;;11.10;1.00;;;;;;4470528;27;659460;-69
2024/03/22 12:24:54;;;;;;;29.50;15.43;;;10.90;1.00;;;;;;4468119;27;660049;-69
2024/03/22 12:27:44;;;;;;;32.87;15.80;;;11.00;99.90;;;;;;4472604;27;659247;-70
2024/03/22 12:30:30;;;;;;;9.37;5.23;;;11.40;29.70;;;;;;4445192;27;659909;-70
2024/03/22 12:33:17;;;;;;;18.93;7.73;;;11.50;1.00;;;;;;4468132;27;657262;-69
2024/03/22 12:36:04;;;;;;;30.33;16.77;;;11.20;1.00;;;;;;4483329;27;658337;-69
2024/03/22 12:38:51;;;;;;;32.60;17.87;;;11.00;1.00;;;;;;4474784;27;659096;-70
2024/03/22 12:41:37;;;;;;;32.13;17.73;;;11.50;1.00;;;;;;4388230;27;659212;-70
2024/03/22 12:44:26;;;;;;;27.10;15.27;;;11.40;1.00;;;;;;4390140;27;658869;-70
2024/03/22 12:47:13;;;;;;;24.67;15.60;;;11.70;1.00;;;;;;4372015;27;658912;-70
2024/03/22 12:49:59;;;;;;;27.30;15.17;;;11.70;1.00;;;;;;4385336;27;658879;-72
2024/03/22 12:52:47;;;;;;;27.30;17.00;;;11.40;1.00;;;;;;4414060;27;658217;-70
2024/03/22 12:55:33;;;;;;;32.47;14.47;;;11.40;1.00;;;;;;4438759;27;658863;-69
2024/03/22 12:58:20;;;;;;;27.83;15.93;;;11.40;1.00;;;;;;4475307;27;659349;-69
2024/03/22 13:01:08;;;;;;;15.73;7.13;;;11.20;1.00;;;;;;4435976;27;659113;-69
2024/03/22 13:03:55;;;;;;;13.87;6.47;;;11.40;1.00;;;;;;4410392;27;657887;-70
2024/03/22 13:06:42;;;;;;;28.17;15.55;;;11.30;1.00;;;;;;4456030;27;657674;-69
2024/03/22 13:09:29;;;;;;;28.03;15.10;;;11.30;1.00;;;;;;4478312;27;658261;-69
2024/03/22 13:12:15;;;;;;;24.73;14.70;;;11.50;1.00;;;;;;4467225;27;658978;-70
2024/03/22 13:15:03;;;;;;;24.23;14.80;;;11.30;1.00;;;;;;4460303;27;658663;-69
2024/03/22 13:17:52;;;;;;;21.80;12.33;;;11.30;1.00;;;;;;4473547;27;660430;-69
2024/03/22 13:20:38;;;;;;;25.87;14.93;;;11.40;1.00;;;;;;4453537;27;660294;-69
2024/03/22 13:23:25;;;;;;;23.37;12.97;;;11.00;1.00;;;;;;4463379;27;659361;-69
2024/03/22 13:26:12;;;;;;;20.07;10.57;;;11.00;1.00;;;;;;4447280;27;659416;-69
2024/03/22 13:28:59;;;;;;;26.90;15.67;;;10.90;1.00;;;;;;4473182;27;658548;-69
2024/03/22 13:31:45;;;;;;;24.47;13.97;;;10.70;1.00;;;;;;4479479;27;659515;-69
2024/03/22 13:34:35;;;;;;;27.80;16.10;;;10.70;1.00;;;;;;4456074;27;659031;-70
2024/03/22 13:37:21;;;;;;;25.23;13.30;;;10.70;1.00;;;;;;4459657;27;658821;-69
2024/03/22 13:40:09;;;;;;;25.77;15.50;;;10.90;1.00;;;;;;4445107;27;658956;-70
2024/03/22 13:42:55;;;;;;;31.97;18.47;;;11.00;1.00;;;;;;4470363;27;658431;-69
2024/03/22 13:45:42;;;;;;;24.10;15.43;;;10.90;1.00;;;;;;4448766;27;659330;-69
2024/03/22 13:48:29;;;;;;;31.57;14.27;;;10.80;1.00;;;;;;4472330;27;660357;-69
2024/03/22 13:51:18;;;;;;;33.53;17.00;;;11.10;1.00;;;;;;4476451;27;659508;-69
2024/03/22 13:54:04;;;;;;;26.47;16.23;;;10.90;1.00;;;;;;4438736;28;659268;-69
2024/03/22 13:56:51;;;;;;;32.40;17.07;;;11.00;42.30;;;;;;4466206;27;658126;-69
2024/03/22 13:59:39;;;;;;;28.60;17.60;;;10.90;1.00;;;;;;4443718;28;660326;-69
2024/03/22 14:02:26;;;;;;;18.92;10.77;;;10.80;1.00;;;;;;4462664;28;659072;-69
2024/03/22 14:05:13;;;;;;;27.87;15.70;;;10.80;1.00;;;;;;4447169;27;658895;-69
2024/03/22 14:08:03;;;;;;;29.40;16.73;;;10.40;1.00;;;;;;4469468;28;660138;-69
2024/03/22 14:10:49;;;;;;;28.40;16.80;;;10.50;1.00;;;;;;4439049;28;658894;-70